Airfield :
LOGIN :

Register | Disclaimer

   EN    FR    IT 

 










Legend :    VFR   Marginal VFR   IFR   Intensive IFR   Very Intensive IFR
Visi :
Ceiling :
>= 8 km
>= 3000ft
5 to 8 km
1000 to 3000 ft
1500m to 5 km
500 to 1000 ft
800 to 1500m
200 to 500 ft
< 800m
< 200 ft
Symbols :   Thunderstorms  Fog  Heavy snow  Heavy precipitations  Wind > 20 kt
SIGMETs :     Misc.  Thunderstorms  Icing  Turbulence  Mountain Waves  Volcanic Ashes







- Airport Elevation : 7 ft
- IATA code : XHE
- Download approach charts


LFTH - Hyeres

CURRENT METAR :
  • 220600Z AUTO 27018KT CAVOK 15/06 Q1014 BECMG 27019G29KT

EXPIRED METARs :
  • 220530Z AUTO 29013KT 270V330 CAVOK 16/05 Q1014 BECMG 27019G29KT
  • 220500Z AUTO 29017G28KT 270V330 CAVOK 16/05 Q1014 NOSIG
  • 220430Z AUTO 29015KT CAVOK 16/05 Q1014 BECMG 27019G29KT
  • 220400Z AUTO 29017KT CAVOK 15/06 Q1014 BECMG 27019G29KT
  • 220330Z AUTO 29016KT CAVOK 16/06 Q1014 BECMG 27019G29KT

TAF TAF LFTH
Valid from the 22 at 03:00 until the 23 at 03:00 UTC


220200Z 2203/2303 27019G29KT CAVOK
TEMPO 2218/2224 30023G39KT
No reported NOTAMs for that airfield.
3 SIGMETs reported for the Marseille FIR (LFMM) :
 
Severe turbulence
LFMM SIGMET 3 VALID 220600/220700 LFPW
LFMM MARSEILLE FIR/UIR SEV TURB FCST WI N4545 E00700 - N4400 E00700 - N4400 E00715 - N4215 E00630 - N4315 E00500 - N4530 E00600 - N4545 E00700 SFC/FL120 STNR NC=
Severe turbulence
LFMM SIGMET 2 VALID 220400/220700 LFPW
LFMM MARSEILLE FIR/UIR SEV TURB FCST WI N4215 E00300 - N4215 E00230 - N4545 E00300 - N4600 E00400 - N4500 E00430 - N4215 E00300 SFC/FL080 STNR NC=
Severe turbulence
LFMM SIGMET 1 VALID 220300/220700 LFPW
LFMM MARSEILLE FIR/UIR SEV TURB FCST WI N4615 E00700 - N4400 E00700 - N4400 E00715 - N4315 E00645 - N4145 E00715 - N4145 E00600 - N4430 E00515 - N4615 E00700 SFC/FL120 STNR NC=



MET'MAP, your aeronautical weather chart ! - Copyright ORBIFLY December 2007 - Disclaimer

ORBIFLY MET'MAP TEAM :

Programming & Development : Alexandra Zaïnal
Concept & Development : Baudouin d'Aumeries
Co-Development & Prog : Marc-Olivier Méhu
Technical & hardware support : Manuel Goepfert

Contact : metmap@orbifly.com




SOURCES & CREDITS :

   NOAA